createdAt,value
2018-03-22T00:00:48.419Z,16.20
2018-03-22T00:01:48.315Z,15.40
2018-03-22T00:02:48.211Z,18.20
2018-03-22T00:03:48.109Z,18.20
2018-03-22T00:04:47.993Z,19.20
2018-03-22T00:05:47.891Z,18.50
2018-03-22T00:06:47.786Z,18.70
2018-03-22T00:07:47.683Z,17.70
2018-03-22T00:08:47.579Z,17.60
2018-03-22T00:09:47.476Z,16.50
2018-03-22T00:10:47.373Z,19.70
2018-03-22T00:11:47.259Z,17.60
2018-03-22T00:12:47.154Z,16.90
2018-03-22T00:13:47.050Z,20.50
2018-03-22T00:14:46.947Z,17.10
2018-03-22T00:15:46.843Z,18.20
2018-03-22T00:16:46.740Z,15.00
2018-03-22T00:17:46.637Z,16.60
2018-03-22T00:18:46.538Z,17.80
2018-03-22T00:19:46.418Z,19.50
2018-03-22T00:20:46.316Z,18.60
2018-03-22T00:21:46.214Z,16.40
2018-03-22T00:22:46.108Z,20.40
2018-03-22T00:23:46.004Z,16.30
2018-03-22T00:24:46.151Z,18.00
2018-03-22T00:25:45.799Z,18.70
2018-03-22T00:26:45.683Z,18.20
2018-03-22T00:27:45.580Z,17.20
2018-03-22T00:28:45.475Z,18.40
2018-03-22T00:29:45.373Z,19.20
2018-03-22T00:30:45.269Z,15.80
2018-03-22T00:31:45.165Z,17.60
2018-03-22T00:32:45.062Z,19.00
2018-03-22T00:33:44.949Z,15.30
2018-03-22T00:34:44.841Z,22.30
2018-03-22T00:35:44.738Z,17.70
2018-03-22T00:36:44.636Z,17.50
2018-03-22T00:37:44.531Z,16.40
2018-03-22T00:38:44.428Z,17.00
2018-03-22T00:39:44.325Z,15.90
2018-03-22T00:40:44.210Z,16.40
2018-03-22T00:41:44.112Z,18.30
2018-03-22T00:42:44.002Z,18.70
2018-03-22T00:43:43.898Z,18.80
2018-03-22T00:44:43.795Z,17.80
2018-03-22T00:45:43.694Z,18.80
2018-03-22T00:46:43.588Z,17.70
2018-03-22T00:47:43.497Z,19.70
2018-03-22T00:48:43.370Z,16.70
2018-03-22T00:49:43.268Z,19.90
2018-03-22T00:50:43.164Z,16.90
2018-03-22T00:51:43.062Z,17.60
2018-03-22T00:52:42.956Z,17.60
2018-03-22T00:53:42.853Z,20.50
2018-03-22T00:54:42.750Z,17.60
2018-03-22T00:55:42.647Z,16.40
2018-03-22T00:56:42.530Z,18.00
2018-03-22T00:57:42.427Z,17.30
2018-03-22T00:58:42.323Z,17.20
2018-03-22T00:59:42.221Z,17.50
2018-03-22T01:00:42.130Z,16.90
2018-03-22T01:01:42.013Z,17.70
2018-03-22T01:02:41.909Z,16.80
2018-03-22T01:03:41.795Z,19.10
2018-03-22T01:04:41.692Z,15.30
2018-03-22T01:05:41.588Z,17.70
2018-03-22T01:06:41.485Z,17.90
2018-03-22T01:07:41.381Z,16.70
2018-03-22T01:08:41.280Z,22.90
2018-03-22T01:09:41.175Z,16.80
2018-03-22T01:10:41.110Z,15.70
2018-03-22T01:11:40.955Z,22.20
2018-03-22T01:12:40.852Z,19.70
2018-03-22T01:13:40.750Z,17.10
2018-03-22T01:14:40.649Z,20.30
2018-03-22T01:15:40.542Z,19.30
2018-03-22T01:16:40.462Z,17.30
2018-03-22T01:17:40.323Z,17.70
2018-03-22T01:18:40.221Z,21.20
2018-03-22T01:19:40.117Z,21.40
2018-03-22T01:20:40.014Z,19.80
2018-03-22T01:21:39.910Z,19.80
2018-03-22T01:22:39.808Z,22.00
2018-03-22T01:23:39.704Z,21.60
2018-03-22T01:24:39.837Z,19.70
2018-03-22T01:25:39.484Z,22.80
2018-03-22T01:26:39.380Z,21.00
2018-03-22T01:27:39.277Z,17.80
2018-03-22T01:28:39.174Z,20.20
2018-03-22T01:29:39.070Z,21.70
2018-03-22T01:30:38.956Z,20.90
2018-03-22T01:31:38.852Z,17.60
2018-03-22T01:32:38.749Z,23.50
2018-03-22T01:33:38.646Z,19.20
2018-03-22T01:34:38.542Z,20.50
2018-03-22T01:35:38.441Z,19.40
2018-03-22T01:36:38.322Z,20.20
2018-03-22T01:37:38.218Z,21.80
2018-03-22T01:38:38.116Z,22.50
2018-03-22T01:39:38.012Z,23.40
2018-03-22T01:40:37.937Z,16.80
2018-03-22T01:41:37.806Z,18.40
2018-03-22T01:42:37.691Z,20.20
2018-03-22T01:43:37.588Z,20.60
2018-03-22T01:44:37.485Z,17.10
2018-03-22T01:45:37.382Z,18.40
2018-03-22T01:46:37.277Z,20.80
2018-03-22T01:47:37.165Z,18.90
2018-03-22T01:48:37.056Z,17.90
2018-03-22T01:49:36.954Z,20.00
2018-03-22T01:50:36.850Z,23.50
2018-03-22T01:51:36.748Z,18.20
2018-03-22T01:52:36.644Z,17.40
2018-03-22T01:53:36.532Z,17.30
2018-03-22T01:54:36.431Z,21.70
2018-03-22T01:55:36.322Z,18.60
2018-03-22T01:56:36.219Z,20.90
2018-03-22T01:57:36.115Z,21.10
2018-03-22T01:58:36.001Z,19.20
2018-03-22T01:59:36.146Z,22.60
2018-03-22T02:00:35.793Z,19.10
2018-03-22T02:01:35.692Z,16.00
2018-03-22T02:02:35.599Z,18.40
2018-03-22T02:03:35.483Z,19.70
2018-03-22T02:04:35.368Z,20.00
2018-03-22T02:05:35.264Z,17.20
2018-03-22T02:06:35.161Z,18.50
2018-03-22T02:07:35.058Z,21.50
2018-03-22T02:08:34.955Z,18.40
2018-03-22T02:09:34.838Z,19.80
2018-03-22T02:10:34.737Z,17.90
2018-03-22T02:11:34.631Z,18.60
2018-03-22T02:12:34.528Z,19.70
2018-03-22T02:13:34.424Z,17.90
2018-03-22T02:14:34.321Z,17.30
2018-03-22T02:15:34.206Z,18.40
2018-03-22T02:16:34.103Z,20.10
2018-03-22T02:17:34.000Z,19.20
2018-03-22T02:18:33.897Z,22.50
2018-03-22T02:19:33.792Z,18.80
2018-03-22T02:20:33.690Z,20.40
2018-03-22T02:21:33.572Z,21.30
2018-03-22T02:22:33.470Z,20.60
2018-03-22T02:23:33.367Z,20.00
2018-03-22T02:24:33.263Z,21.30
2018-03-22T02:25:33.160Z,19.70
2018-03-22T02:26:33.045Z,18.50
2018-03-22T02:27:32.941Z,21.90
2018-03-22T02:28:32.838Z,17.70
2018-03-22T02:29:32.737Z,17.80
2018-03-22T02:30:32.632Z,20.20
2018-03-22T02:31:32.529Z,19.00
2018-03-22T02:32:32.425Z,21.30
2018-03-22T02:33:32.309Z,23.40
2018-03-22T02:34:32.205Z,25.70
2018-03-22T02:35:32.102Z,19.40
2018-03-22T02:36:31.998Z,20.60
2018-03-22T02:37:31.883Z,18.80
2018-03-22T02:38:31.781Z,21.60
2018-03-22T02:39:31.679Z,19.50
2018-03-22T02:40:31.573Z,22.60
2018-03-22T02:41:31.470Z,20.90
2018-03-22T02:42:31.354Z,19.30
2018-03-22T02:43:31.250Z,18.90
2018-03-22T02:44:31.147Z,18.10
2018-03-22T02:45:31.045Z,23.50
2018-03-22T02:46:30.940Z,16.30
2018-03-22T02:47:30.825Z,18.30
2018-03-22T02:48:30.722Z,20.80
2018-03-22T02:49:30.618Z,18.90
2018-03-22T02:50:30.516Z,23.70
2018-03-22T02:51:30.412Z,21.20
2018-03-22T02:52:30.296Z,20.60
2018-03-22T02:53:30.197Z,18.40
2018-03-22T02:54:30.089Z,18.80
2018-03-22T02:55:29.986Z,21.40
2018-03-22T02:56:29.881Z,18.70
2018-03-22T02:57:29.784Z,22.00
2018-03-22T02:58:29.664Z,18.40
2018-03-22T02:59:29.568Z,19.70
2018-03-22T03:00:29.491Z,22.20
2018-03-22T03:01:29.354Z,19.70
2018-03-22T03:02:29.251Z,18.90
2018-03-22T03:03:29.134Z,18.90
2018-03-22T03:04:29.030Z,19.10
2018-03-22T03:05:28.926Z,23.20
2018-03-22T03:06:28.826Z,23.40
2018-03-22T03:07:28.720Z,17.30
2018-03-22T03:08:28.605Z,19.10
2018-03-22T03:09:28.502Z,19.50
2018-03-22T03:10:28.401Z,21.60
2018-03-22T03:11:28.296Z,20.50
2018-03-22T03:12:28.192Z,20.80
2018-03-22T03:13:28.077Z,21.40
2018-03-22T03:14:27.972Z,20.80
2018-03-22T03:15:27.868Z,20.40
2018-03-22T03:16:27.765Z,20.70
2018-03-22T03:17:27.664Z,21.60
2018-03-22T03:18:27.559Z,21.70
2018-03-22T03:19:27.445Z,21.60
2018-03-22T03:20:27.345Z,19.50
2018-03-22T03:21:27.239Z,17.60
2018-03-22T03:22:27.134Z,21.10
2018-03-22T03:23:27.031Z,18.70
2018-03-22T03:24:26.914Z,18.00
2018-03-22T03:25:26.811Z,17.10
2018-03-22T03:26:26.707Z,19.70
2018-03-22T03:27:26.604Z,20.80
2018-03-22T03:28:26.501Z,18.80
2018-03-22T03:29:26.389Z,18.60
2018-03-22T03:30:26.332Z,19.70
2018-03-22T03:31:26.180Z,18.00
2018-03-22T03:32:26.076Z,20.30
2018-03-22T03:33:25.973Z,19.30
2018-03-22T03:34:25.869Z,18.60
2018-03-22T03:35:25.752Z,19.60
2018-03-22T03:36:25.649Z,19.60
2018-03-22T03:37:25.547Z,19.20
2018-03-22T03:38:25.456Z,18.10
2018-03-22T03:39:25.339Z,18.30
2018-03-22T03:40:25.224Z,20.90
2018-03-22T03:41:25.122Z,20.90
2018-03-22T03:42:25.018Z,18.20
2018-03-22T03:43:24.914Z,20.60
2018-03-22T03:44:24.813Z,18.40
2018-03-22T03:45:24.696Z,18.50
2018-03-22T03:46:24.590Z,19.80
2018-03-22T03:47:24.488Z,21.60
2018-03-22T03:48:24.391Z,19.20
2018-03-22T03:49:24.282Z,22.60
2018-03-22T03:50:24.178Z,21.90
2018-03-22T03:51:24.063Z,20.20
2018-03-22T03:52:23.961Z,19.20
2018-03-22T03:53:23.856Z,20.90
2018-03-22T03:54:23.752Z,18.60
2018-03-22T03:55:23.655Z,18.60
2018-03-22T03:56:23.573Z,22.20
2018-03-22T03:57:23.429Z,19.70
2018-03-22T03:58:23.325Z,19.10
2018-03-22T03:59:23.222Z,20.10
2018-03-22T04:00:23.120Z,22.20
2018-03-22T04:01:23.017Z,20.40
2018-03-22T04:02:22.919Z,18.80
2018-03-22T04:03:22.797Z,19.40
2018-03-22T04:04:22.694Z,19.40
2018-03-22T04:05:22.597Z,21.80
2018-03-22T04:06:22.488Z,22.30
2018-03-22T04:07:22.373Z,21.60
2018-03-22T04:08:22.268Z,21.40
2018-03-22T04:09:22.177Z,19.40
2018-03-22T04:10:22.061Z,19.20
2018-03-22T04:11:21.958Z,23.60
2018-03-22T04:12:21.854Z,22.20
2018-03-22T04:13:21.743Z,23.70
2018-03-22T04:14:21.636Z,21.20
2018-03-22T04:15:21.533Z,24.00
2018-03-22T04:16:21.429Z,22.80
2018-03-22T04:17:21.326Z,24.90
2018-03-22T04:18:21.210Z,20.20
2018-03-22T04:19:21.106Z,22.60
2018-03-22T04:20:21.002Z,20.30
2018-03-22T04:21:20.908Z,19.20
2018-03-22T04:22:20.796Z,22.50
2018-03-22T04:23:20.692Z,20.10
2018-03-22T04:24:20.827Z,20.60
2018-03-22T04:25:20.474Z,21.70
2018-03-22T04:26:20.374Z,22.20
2018-03-22T04:27:20.273Z,21.20
2018-03-22T04:28:20.153Z,24.30
2018-03-22T04:29:20.056Z,30.00
2018-03-22T04:30:19.945Z,22.70
2018-03-22T04:31:19.841Z,21.60
2018-03-22T04:32:19.738Z,23.90
2018-03-22T04:33:19.635Z,19.60
2018-03-22T04:34:19.520Z,23.80
2018-03-22T04:35:19.428Z,21.20
2018-03-22T04:36:19.313Z,23.40
2018-03-22T04:37:19.210Z,22.60
2018-03-22T04:38:19.107Z,20.90
2018-03-22T04:39:18.991Z,21.60
2018-03-22T04:40:18.886Z,20.10
2018-03-22T04:41:18.783Z,22.50
2018-03-22T04:42:18.679Z,22.10
2018-03-22T04:43:18.576Z,21.20
2018-03-22T04:44:18.461Z,21.70
2018-03-22T04:45:18.358Z,22.00
2018-03-22T04:46:18.254Z,21.60
2018-03-22T04:47:18.151Z,20.80
2018-03-22T04:48:18.051Z,23.70
2018-03-22T04:49:17.933Z,21.20
2018-03-22T04:50:17.828Z,22.80
2018-03-22T04:51:17.730Z,22.30
2018-03-22T04:52:17.622Z,24.90
2018-03-22T04:53:17.519Z,23.80
2018-03-22T04:54:17.416Z,23.20
2018-03-22T04:55:17.301Z,22.20
2018-03-22T04:56:17.197Z,24.50
2018-03-22T04:57:17.093Z,20.20
2018-03-22T04:58:16.989Z,28.40
2018-03-22T04:59:17.184Z,21.60
2018-03-22T05:00:16.770Z,22.50
2018-03-22T05:01:16.666Z,24.10
2018-03-22T05:02:16.563Z,23.40
2018-03-22T05:03:16.463Z,22.60
2018-03-22T05:04:16.372Z,25.00
2018-03-22T05:05:16.241Z,22.00
2018-03-22T05:06:16.141Z,21.60
2018-03-22T05:07:16.034Z,24.60
2018-03-22T05:08:15.931Z,21.90
2018-03-22T05:09:15.833Z,22.10
2018-03-22T05:10:15.712Z,23.00
2018-03-22T05:11:15.608Z,24.40
2018-03-22T05:12:15.505Z,22.50
2018-03-22T05:13:15.402Z,24.00
2018-03-22T05:14:15.300Z,24.40
2018-03-22T05:15:15.184Z,22.40
2018-03-22T05:16:15.085Z,23.00
2018-03-22T05:17:14.979Z,22.40
2018-03-22T05:18:14.873Z,23.60
2018-03-22T05:19:14.770Z,24.60
2018-03-22T05:20:14.702Z,24.50
2018-03-22T05:21:14.550Z,24.30
2018-03-22T05:22:14.448Z,21.40
2018-03-22T05:23:14.343Z,22.80
2018-03-22T05:24:14.240Z,24.10
2018-03-22T05:25:14.125Z,22.00
2018-03-22T05:26:14.021Z,21.50
2018-03-22T05:27:13.923Z,24.40
2018-03-22T05:28:13.815Z,21.80
2018-03-22T05:29:13.711Z,25.10
2018-03-22T05:30:13.599Z,24.80
2018-03-22T05:31:13.492Z,22.60
2018-03-22T05:32:13.404Z,24.00
2018-03-22T05:33:13.286Z,25.50
2018-03-22T05:34:13.182Z,25.20
2018-03-22T05:35:13.078Z,25.70
2018-03-22T05:36:12.962Z,22.20
2018-03-22T05:37:12.860Z,24.20
2018-03-22T05:38:12.758Z,24.70
2018-03-22T05:39:12.855Z,26.50
2018-03-22T05:40:12.550Z,25.30
2018-03-22T05:41:12.434Z,23.30
2018-03-22T05:42:12.329Z,23.40
2018-03-22T05:43:12.228Z,22.70
2018-03-22T05:44:12.137Z,24.20
2018-03-22T05:45:12.033Z,24.90
2018-03-22T05:46:11.917Z,25.50
2018-03-22T05:47:11.803Z,24.50
2018-03-22T05:48:11.699Z,27.20
2018-03-22T05:49:11.596Z,24.70
2018-03-22T05:50:11.492Z,25.90
2018-03-22T05:51:11.388Z,27.90
2018-03-22T05:52:11.274Z,25.80
2018-03-22T05:53:11.169Z,26.30
2018-03-22T05:54:11.065Z,25.70
2018-03-22T05:55:10.962Z,29.20
2018-03-22T05:56:10.859Z,28.60
2018-03-22T05:57:10.756Z,28.10
2018-03-22T05:58:10.641Z,28.50
2018-03-22T05:59:10.788Z,25.80
2018-03-22T06:00:10.436Z,26.60
2018-03-22T06:01:10.331Z,29.30
2018-03-22T06:02:10.228Z,30.70
2018-03-22T06:03:10.160Z,27.30
2018-03-22T06:04:10.008Z,26.30
2018-03-22T06:05:09.906Z,28.20
2018-03-22T06:06:09.800Z,28.10
2018-03-22T06:07:09.703Z,29.10
2018-03-22T06:08:09.594Z,26.30
2018-03-22T06:09:09.491Z,26.40
2018-03-22T06:10:09.387Z,27.80
2018-03-22T06:11:09.286Z,24.60
2018-03-22T06:12:09.170Z,25.10
2018-03-22T06:13:09.066Z,26.40
2018-03-22T06:14:08.962Z,25.10
2018-03-22T06:15:08.859Z,27.40
2018-03-22T06:16:08.743Z,26.20
2018-03-22T06:17:08.639Z,25.90
2018-03-22T06:18:08.536Z,26.00
2018-03-22T06:19:08.432Z,25.30
2018-03-22T06:20:08.330Z,24.70
2018-03-22T06:21:08.226Z,25.40
2018-03-22T06:22:08.123Z,26.20
2018-03-22T06:23:08.023Z,25.70
2018-03-22T06:24:07.906Z,26.50
2018-03-22T06:25:07.804Z,24.10
2018-03-22T06:26:07.698Z,26.00
2018-03-22T06:27:07.595Z,25.80
2018-03-22T06:28:07.492Z,24.70
2018-03-22T06:29:07.387Z,25.50
2018-03-22T06:30:07.285Z,27.50
2018-03-22T06:31:07.168Z,25.70
2018-03-22T06:32:07.078Z,27.80
2018-03-22T06:33:06.964Z,28.30
2018-03-22T06:34:06.858Z,23.50
2018-03-22T06:35:06.754Z,25.00
2018-03-22T06:36:06.652Z,28.50
2018-03-22T06:37:06.548Z,27.70
2018-03-22T06:38:06.444Z,26.30
2018-03-22T06:39:06.341Z,29.70
2018-03-22T06:40:06.259Z,28.20
2018-03-22T06:41:06.123Z,28.20
2018-03-22T06:42:06.019Z,29.70
2018-03-22T06:43:05.917Z,28.60
2018-03-22T06:44:06.063Z,30.00
2018-03-22T06:45:05.711Z,31.00
2018-03-22T06:46:05.606Z,31.00
2018-03-22T06:47:05.502Z,27.10
2018-03-22T06:48:05.390Z,30.50
2018-03-22T06:49:05.283Z,33.50
2018-03-22T06:50:05.180Z,30.60
2018-03-22T06:51:05.079Z,32.90
2018-03-22T06:52:04.973Z,31.50
2018-03-22T06:53:04.877Z,31.90
2018-03-22T06:54:04.771Z,32.40
2018-03-22T06:55:04.652Z,30.60
2018-03-22T06:56:04.549Z,34.10
2018-03-22T06:57:04.446Z,30.00
2018-03-22T06:58:04.342Z,32.20
2018-03-22T06:59:04.239Z,31.30
2018-03-22T07:00:04.136Z,31.70
2018-03-22T07:01:04.032Z,32.20
2018-03-22T07:02:03.914Z,30.30
2018-03-22T07:03:03.811Z,32.50
2018-03-22T07:04:03.708Z,32.90
2018-03-22T07:05:03.605Z,34.90
2018-03-22T07:06:03.502Z,32.40
2018-03-22T07:07:03.398Z,28.60
2018-03-22T07:08:03.283Z,31.80
2018-03-22T07:09:03.184Z,29.50
2018-03-22T07:10:03.076Z,30.90
2018-03-22T07:11:02.974Z,29.60
2018-03-22T07:12:02.870Z,32.80
2018-03-22T07:13:02.767Z,32.00
2018-03-22T07:14:02.651Z,31.60
2018-03-22T07:15:02.548Z,32.30
2018-03-22T07:16:02.457Z,33.40
2018-03-22T07:17:02.340Z,35.60
2018-03-22T07:18:02.237Z,36.90
2018-03-22T07:19:02.133Z,36.60
2018-03-22T07:20:02.019Z,35.60
2018-03-22T07:21:01.915Z,42.50
2018-03-22T07:22:01.812Z,41.10
2018-03-22T07:23:01.708Z,45.20
2018-03-22T07:24:01.595Z,43.70
2018-03-22T07:25:01.494Z,44.30
2018-03-22T07:26:01.404Z,45.80
2018-03-22T07:27:01.282Z,52.30
2018-03-22T07:28:01.178Z,51.70
2018-03-22T07:29:01.075Z,51.40
2018-03-22T07:30:00.960Z,51.80
2018-03-22T07:31:00.857Z,53.00
2018-03-22T07:32:00.754Z,52.30
2018-03-22T07:33:00.651Z,47.20
2018-03-22T07:34:00.536Z,48.50
2018-03-22T07:35:00.430Z,50.90
2018-03-22T07:36:00.328Z,50.40
2018-03-22T07:37:00.224Z,49.60
2018-03-22T07:38:00.121Z,48.30
2018-03-22T07:39:00.005Z,45.00
2018-03-22T07:39:59.902Z,46.00
2018-03-22T07:40:59.799Z,43.80
2018-03-22T07:41:59.695Z,41.80
2018-03-22T07:42:59.593Z,42.80
2018-03-22T07:43:59.477Z,44.70
2018-03-22T07:44:59.406Z,41.10
2018-03-22T07:45:59.269Z,42.30
2018-03-22T07:46:59.168Z,41.10
2018-03-22T07:47:59.051Z,38.50
2018-03-22T07:48:58.951Z,36.00
2018-03-22T07:49:58.845Z,40.80
2018-03-22T07:50:58.741Z,38.60
2018-03-22T07:51:58.625Z,34.80
2018-03-22T07:52:58.521Z,40.70
2018-03-22T07:53:58.417Z,39.50
2018-03-22T07:54:58.314Z,38.80
2018-03-22T07:55:58.211Z,37.40
2018-03-22T07:56:58.096Z,39.40
2018-03-22T07:57:57.992Z,35.90
2018-03-22T07:58:57.906Z,39.90
2018-03-22T07:59:57.786Z,36.00
2018-03-22T08:00:57.683Z,39.30
2018-03-22T08:01:57.568Z,36.00
2018-03-22T08:02:57.463Z,35.70
2018-03-22T08:03:57.359Z,35.30
2018-03-22T08:04:57.256Z,35.40
2018-03-22T08:05:57.209Z,35.50
2018-03-22T08:06:57.083Z,30.90
2018-03-22T08:07:56.934Z,32.00
2018-03-22T08:08:56.831Z,34.10
2018-03-22T08:09:56.728Z,34.90
2018-03-22T08:10:56.628Z,32.90
2018-03-22T08:11:56.521Z,32.40
2018-03-22T08:12:56.405Z,35.50
2018-03-22T08:13:56.301Z,34.50
2018-03-22T08:14:56.197Z,35.10
2018-03-22T08:15:56.097Z,35.90
2018-03-22T08:16:55.991Z,36.20
2018-03-22T08:17:55.888Z,34.50
2018-03-22T08:18:56.073Z,29.80
2018-03-22T08:19:55.671Z,31.60
2018-03-22T08:20:55.566Z,40.00
2018-03-22T08:21:55.464Z,32.90
2018-03-22T08:22:55.363Z,33.40
2018-03-22T08:23:55.243Z,35.00
2018-03-22T08:24:55.139Z,30.40
2018-03-22T08:25:55.036Z,33.90
2018-03-22T08:26:54.933Z,32.60
2018-03-22T08:27:54.829Z,32.50
2018-03-22T08:28:54.729Z,33.00
2018-03-22T08:29:54.612Z,34.90
2018-03-22T08:30:54.508Z,34.90
2018-03-22T08:31:54.405Z,40.00
2018-03-22T08:32:54.302Z,38.80
2018-03-22T08:33:54.198Z,39.70
2018-03-22T08:34:54.095Z,41.10
2018-03-22T08:35:53.978Z,36.70
2018-03-22T08:36:53.877Z,41.30
2018-03-22T08:37:53.771Z,37.80
2018-03-22T08:38:53.920Z,41.40
2018-03-22T08:39:53.564Z,35.80
2018-03-22T08:40:53.465Z,39.70
2018-03-22T08:41:53.346Z,39.70
2018-03-22T08:42:53.243Z,46.50
2018-03-22T08:43:53.140Z,40.20
2018-03-22T08:44:53.036Z,39.80
2018-03-22T08:45:52.933Z,45.90
2018-03-22T08:46:52.830Z,47.40
2018-03-22T08:47:52.726Z,46.70
2018-03-22T08:48:52.611Z,47.20
2018-03-22T08:49:52.520Z,47.50
2018-03-22T08:50:52.403Z,47.90
2018-03-22T08:51:52.300Z,47.40
2018-03-22T08:52:52.198Z,46.70
2018-03-22T08:53:52.081Z,50.00
2018-03-22T08:54:51.979Z,54.80
2018-03-22T08:55:51.874Z,49.80
2018-03-22T08:56:51.771Z,54.70
2018-03-22T08:57:51.668Z,55.80
2018-03-22T08:58:51.815Z,51.10
2018-03-22T08:59:51.450Z,57.10
2018-03-22T09:00:51.348Z,61.50
2018-03-22T09:01:51.244Z,58.00
2018-03-22T09:02:51.138Z,63.20
2018-03-22T09:03:51.036Z,60.50
2018-03-22T09:04:50.934Z,68.80
2018-03-22T09:05:50.829Z,68.10
2018-03-22T09:06:50.718Z,68.40
2018-03-22T09:07:50.610Z,63.70
2018-03-22T09:08:50.508Z,70.00
2018-03-22T09:09:50.404Z,70.50
2018-03-22T09:10:50.305Z,70.50
2018-03-22T09:11:50.196Z,78.00
2018-03-22T09:12:50.082Z,66.20
2018-03-22T09:13:49.977Z,67.40
2018-03-22T09:14:49.873Z,65.00
2018-03-22T09:15:49.770Z,67.50
2018-03-22T09:16:49.667Z,63.90
2018-03-22T09:17:49.564Z,62.10
2018-03-22T09:18:49.460Z,61.70
2018-03-22T09:19:49.346Z,70.90
2018-03-22T09:20:49.244Z,65.40
2018-03-22T09:21:49.138Z,71.60
2018-03-22T09:22:49.036Z,69.60
2018-03-22T09:23:48.937Z,69.00
2018-03-22T09:24:48.829Z,74.00
2018-03-22T09:25:48.725Z,70.30
2018-03-22T09:26:48.609Z,68.50
2018-03-22T09:27:48.508Z,67.70
2018-03-22T09:28:48.402Z,76.60
2018-03-22T09:29:48.299Z,83.70
2018-03-22T09:30:48.195Z,80.70
2018-03-22T09:31:48.094Z,83.70
2018-03-22T09:32:47.977Z,89.30
2018-03-22T09:33:47.874Z,84.80
2018-03-22T09:34:47.820Z,83.60
2018-03-22T09:35:47.667Z,82.40
2018-03-22T09:36:47.564Z,76.70
2018-03-22T09:37:47.448Z,83.00
2018-03-22T09:38:47.344Z,79.90
2018-03-22T09:39:47.241Z,84.10
2018-03-22T09:40:47.137Z,82.30
2018-03-22T09:41:47.048Z,79.40
2018-03-22T09:42:46.930Z,81.90
2018-03-22T09:43:46.815Z,82.90
2018-03-22T09:44:46.712Z,85.50
2018-03-22T09:45:46.608Z,88.20
2018-03-22T09:46:46.505Z,85.10
2018-03-22T09:47:46.404Z,89.50
2018-03-22T09:48:46.286Z,93.10
2018-03-22T09:49:46.195Z,90.80
2018-03-22T09:50:46.081Z,78.50
2018-03-22T09:51:45.977Z,84.60
2018-03-22T09:52:45.873Z,75.30
2018-03-22T09:53:45.804Z,80.90
2018-03-22T09:54:45.655Z,82.40
2018-03-22T09:55:45.551Z,79.10
2018-03-22T09:56:45.449Z,80.00
2018-03-22T09:57:45.349Z,87.30
2018-03-22T09:58:45.242Z,89.00
2018-03-22T09:59:45.124Z,84.50
2018-03-22T10:00:45.021Z,75.80
2018-03-22T10:01:44.921Z,85.20
2018-03-22T10:02:44.827Z,79.70
2018-03-22T10:03:44.711Z,89.00
2018-03-22T10:04:44.596Z,82.00
2018-03-22T10:05:44.492Z,82.70
2018-03-22T10:06:44.390Z,87.20
2018-03-22T10:07:44.287Z,86.70
2018-03-22T10:08:44.172Z,97.10
2018-03-22T10:09:44.067Z,93.50
2018-03-22T10:10:43.963Z,94.70
2018-03-22T10:11:43.859Z,86.30
2018-03-22T10:12:43.756Z,83.40
2018-03-22T10:13:43.653Z,86.00
2018-03-22T10:14:43.540Z,85.80
2018-03-22T10:15:43.438Z,84.20
2018-03-22T10:16:43.331Z,90.00
2018-03-22T10:17:43.228Z,89.10
2018-03-22T10:18:43.130Z,82.00
2018-03-22T10:19:43.009Z,82.50
2018-03-22T10:20:42.904Z,82.50
2018-03-22T10:21:42.850Z,80.80
2018-03-22T10:22:42.702Z,83.00
2018-03-22T10:23:42.594Z,80.30
2018-03-22T10:24:42.480Z,78.10
2018-03-22T10:25:42.376Z,81.20
2018-03-22T10:26:42.273Z,82.00
2018-03-22T10:27:42.261Z,83.00
2018-03-22T10:28:42.066Z,80.00
2018-03-22T10:29:41.952Z,78.80
2018-03-22T10:30:41.847Z,81.90
2018-03-22T10:31:41.744Z,82.40
2018-03-22T10:32:41.653Z,82.50
2018-03-22T10:33:41.537Z,76.40
2018-03-22T10:34:41.434Z,80.40
2018-03-22T10:35:41.318Z,82.20
2018-03-22T10:36:41.216Z,80.40
2018-03-22T10:37:41.111Z,84.90
2018-03-22T10:38:41.008Z,81.20
2018-03-22T10:39:40.905Z,84.50
2018-03-22T10:40:40.789Z,90.50
2018-03-22T10:41:40.685Z,95.50
2018-03-22T10:42:40.581Z,96.50
2018-03-22T10:43:40.479Z,92.90
2018-03-22T10:44:40.378Z,94.70
2018-03-22T10:45:40.272Z,94.50
2018-03-22T10:46:40.157Z,94.30
2018-03-22T10:47:40.054Z,99.70
2018-03-22T10:48:39.957Z,100.20
2018-03-22T10:49:39.847Z,90.40
2018-03-22T10:50:39.743Z,94.50
2018-03-22T10:51:39.628Z,97.80
2018-03-22T10:52:39.524Z,99.40
2018-03-22T10:53:39.422Z,99.60
2018-03-22T10:54:39.317Z,95.00
2018-03-22T10:55:39.214Z,95.80
2018-03-22T10:56:39.111Z,99.40
2018-03-22T10:57:39.007Z,98.60
2018-03-22T10:58:39.142Z,102.40
2018-03-22T10:59:38.789Z,104.20
2018-03-22T11:00:38.686Z,107.60
2018-03-22T11:01:38.582Z,116.80
2018-03-22T11:02:38.478Z,114.40
2018-03-22T11:03:38.376Z,115.90
2018-03-22T11:04:38.260Z,115.00
2018-03-22T11:05:38.156Z,114.30
2018-03-22T11:06:38.066Z,122.60
2018-03-22T11:07:37.949Z,121.40
2018-03-22T11:08:37.845Z,118.10
2018-03-22T11:09:37.743Z,126.50
2018-03-22T11:10:37.627Z,118.90
2018-03-22T11:11:37.527Z,118.40
2018-03-22T11:12:37.421Z,110.40
2018-03-22T11:13:37.326Z,109.10
2018-03-22T11:14:37.214Z,105.20
2018-03-22T11:15:37.099Z,99.20
2018-03-22T11:16:36.994Z,99.70
2018-03-22T11:17:36.890Z,104.90
2018-03-22T11:18:37.037Z,104.20
2018-03-22T11:19:36.697Z,110.60
2018-03-22T11:20:36.580Z,102.00
2018-03-22T11:21:36.478Z,99.40
2018-03-22T11:22:36.370Z,98.50
2018-03-22T11:23:36.266Z,97.70
2018-03-22T11:24:36.155Z,101.40
2018-03-22T11:25:36.052Z,110.60
2018-03-22T11:26:35.949Z,97.70
2018-03-22T11:27:35.846Z,106.40
2018-03-22T11:28:35.730Z,106.10
2018-03-22T11:29:35.626Z,108.30
2018-03-22T11:30:35.523Z,111.70
2018-03-22T11:31:35.419Z,98.40
2018-03-22T11:32:35.315Z,101.90
2018-03-22T11:33:35.213Z,103.10
2018-03-22T11:34:35.108Z,105.90
2018-03-22T11:35:34.994Z,98.60
2018-03-22T11:36:34.890Z,100.40
2018-03-22T11:37:34.788Z,101.40
2018-03-22T11:38:34.940Z,104.30
2018-03-22T11:39:34.581Z,101.30
2018-03-22T11:40:34.478Z,109.10
2018-03-22T11:41:34.375Z,101.00
2018-03-22T11:42:34.271Z,107.90
2018-03-22T11:43:34.154Z,101.60
2018-03-22T11:44:34.051Z,106.30
2018-03-22T11:45:33.948Z,104.90
2018-03-22T11:46:33.847Z,103.30
2018-03-22T11:47:33.741Z,99.70
2018-03-22T11:48:33.637Z,98.10
2018-03-22T11:49:33.534Z,98.80
2018-03-22T11:50:33.430Z,98.20
2018-03-22T11:51:33.316Z,100.70
2018-03-22T11:52:33.213Z,104.60
2018-03-22T11:53:33.108Z,100.80
2018-03-22T11:54:33.006Z,100.80
2018-03-22T11:55:32.903Z,99.10
2018-03-22T11:56:32.801Z,99.80
2018-03-22T11:57:32.696Z,94.00
2018-03-22T11:58:32.831Z,86.60
2018-03-22T11:59:32.476Z,85.00
2018-03-22T12:00:32.373Z,95.00
2018-03-22T12:01:32.271Z,87.80
2018-03-22T12:02:32.167Z,92.20
2018-03-22T12:03:32.096Z,81.20
2018-03-22T12:04:31.972Z,89.20
2018-03-22T12:05:31.861Z,85.10
2018-03-22T12:06:31.753Z,83.50
2018-03-22T12:07:31.637Z,90.10
2018-03-22T12:08:31.535Z,88.90
2018-03-22T12:09:31.431Z,88.20
2018-03-22T12:10:31.328Z,92.90
2018-03-22T12:11:31.224Z,94.50
2018-03-22T12:12:31.134Z,96.20
2018-03-22T12:13:31.019Z,94.40
2018-03-22T12:14:30.915Z,91.60
2018-03-22T12:15:30.798Z,83.10
2018-03-22T12:16:30.695Z,87.80
2018-03-22T12:17:30.591Z,79.70
2018-03-22T12:18:30.738Z,84.40
2018-03-22T12:19:30.385Z,94.80
2018-03-22T12:20:30.281Z,88.20
2018-03-22T12:21:30.178Z,99.10
2018-03-22T12:22:30.075Z,91.40
2018-03-22T12:23:29.964Z,86.30
2018-03-22T12:24:29.880Z,96.50
2018-03-22T12:25:29.756Z,80.10
2018-03-22T12:26:29.649Z,89.20
2018-03-22T12:27:29.547Z,84.70
2018-03-22T12:28:29.443Z,87.00
2018-03-22T12:29:29.340Z,92.50
2018-03-22T12:30:29.223Z,89.00
2018-03-22T12:31:29.122Z,84.70
2018-03-22T12:32:29.017Z,87.60
2018-03-22T12:33:28.913Z,89.50
2018-03-22T12:34:28.810Z,91.80
2018-03-22T12:35:28.708Z,87.70
2018-03-22T12:36:28.603Z,89.40
2018-03-22T12:37:28.499Z,92.30
2018-03-22T12:38:28.385Z,82.30
2018-03-22T12:39:28.281Z,78.40
2018-03-22T12:40:28.179Z,78.10
2018-03-22T12:41:28.075Z,80.10
2018-03-22T12:42:27.974Z,85.10
2018-03-22T12:43:27.869Z,85.00
2018-03-22T12:44:27.768Z,84.50
2018-03-22T12:45:27.661Z,79.40
2018-03-22T12:46:27.569Z,74.70
2018-03-22T12:47:27.443Z,82.10
2018-03-22T12:48:27.339Z,78.10
2018-03-22T12:49:27.235Z,75.60
2018-03-22T12:50:27.132Z,73.60